Time;durP1;ratioP1;P1;durP2;ratioP2;P2;SDS_P1;SDS_P2;PMS_P1;PMS_P2;Temp;Humidity;BMP_temperature;BMP_pressure;BME280_temperature;BME280_humidity;BME280_pressure;Samples;Min_cycle;Max_cycle;Signal;HPM_P1;HPM_P2
2023/06/12 00:00:45;;;;;;;3.27;2.93;;;;;;;;;;4956106;28;20981;-70
2023/06/12 00:03:12;;;;;;;2.70;2.70;;;;;;;;;;4956046;28;20518;-69
2023/06/12 00:05:41;;;;;;;4.50;3.07;;;;;;;;;;4956372;28;20486;-69
2023/06/12 00:08:08;;;;;;;2.77;2.70;;;;;;;;;;4956860;28;20435;-69
2023/06/12 00:10:34;;;;;;;2.70;2.70;;;;;;;;;;4956253;28;20419;-69
2023/06/12 00:13:00;;;;;;;2.70;2.60;;;;;;;;;;4956257;28;20419;-70
2023/06/12 00:15:26;;;;;;;7.50;2.80;;;;;;;;;;4956200;28;20974;-69
2023/06/12 00:17:52;;;;;;;10.03;3.57;;;;;;;;;;4956105;28;20873;-69
2023/06/12 00:20:18;;;;;;;2.87;2.60;;;;;;;;;;4955860;28;20550;-69
2023/06/12 00:22:44;;;;;;;2.37;2.37;;;;;;;;;;4956044;28;20486;-69
2023/06/12 00:25:10;;;;;;;5.97;3.00;;;;;;;;;;4955861;28;20844;-69
2023/06/12 00:30:40;;;;;;;3.03;2.93;;;;;;;;;;4955772;29;20490;-69
2023/06/12 00:33:06;;;;;;;4.10;3.00;;;;;;;;;;4955629;28;20887;-69
2023/06/12 00:35:32;;;;;;;3.87;2.73;;;;;;;;;;4955630;28;20505;-70
2023/06/12 00:37:58;;;;;;;2.67;2.57;;;;;;;;;;4955802;28;20450;-70
2023/06/12 00:40:24;;;;;;;2.93;2.83;;;;;;;;;;4955825;28;20419;-70
2023/06/12 00:42:51;;;;;;;4.10;3.23;;;;;;;;;;4955414;28;20482;-70
2023/06/12 00:45:18;;;;;;;2.90;2.80;;;;;;;;;;4955637;28;20415;-69
2023/06/12 00:47:48;;;;;;;6.00;2.70;;;;;;;;;;4955322;28;20884;-69
2023/06/12 00:50:14;;;;;;;3.03;2.73;;;;;;;;;;4955294;28;20442;-70
2023/06/12 00:52:45;;;;;;;3.23;3.00;;;;;;;;;;4955133;28;20864;-69
2023/06/12 00:55:11;;;;;;;2.60;2.50;;;;;;;;;;4955506;28;20417;-69
2023/06/12 00:57:38;;;;;;;3.33;3.13;;;;;;;;;;4955391;28;20423;-70
2023/06/12 01:00:07;;;;;;;2.70;2.70;;;;;;;;;;4955430;28;20519;-70
2023/06/12 01:02:39;;;;;;;2.60;2.57;;;;;;;;;;4955300;28;20502;-69
2023/06/12 01:05:10;;;;;;;3.43;2.40;;;;;;;;;;4955420;28;20410;-69
2023/06/12 01:07:52;;;;;;;2.60;2.60;;;;;;;;;;4955409;28;20411;-69
2023/06/12 01:10:30;;;;;;;2.70;2.60;;;;;;;;;;4955100;28;20415;-69
2023/06/12 01:12:57;;;;;;;3.10;2.90;;;;;;;;;;4955338;28;20494;-69
2023/06/12 01:15:23;;;;;;;3.33;2.80;;;;;;;;;;4955378;28;20448;-69
2023/06/12 01:17:49;;;;;;;2.80;2.63;;;;;;;;;;4954979;28;20802;-69
2023/06/12 01:20:17;;;;;;;2.60;2.60;;;;;;;;;;4955281;28;20466;-69
2023/06/12 01:22:49;;;;;;;3.13;3.13;;;;;;;;;;4954816;28;20970;-69
2023/06/12 01:25:35;;;;;;;3.30;3.10;;;;;;;;;;4954966;28;20879;-70
2023/06/12 01:28:04;;;;;;;2.53;2.50;;;;;;;;;;4954901;28;20442;-69
2023/06/12 01:30:49;;;;;;;2.53;2.43;;;;;;;;;;4954903;28;20415;-70
2023/06/12 01:33:19;;;;;;;6.10;2.73;;;;;;;;;;4955083;28;20430;-69
2023/06/12 01:35:47;;;;;;;2.93;2.80;;;;;;;;;;4955165;28;20450;-69
2023/06/12 01:38:17;;;;;;;2.73;2.70;;;;;;;;;;4954862;28;20419;-69
2023/06/12 01:40:45;;;;;;;9.70;5.03;;;;;;;;;;4954906;28;20422;-69
2023/06/12 01:43:11;;;;;;;2.90;2.80;;;;;;;;;;4954931;28;20427;-69
2023/06/12 01:45:37;;;;;;;3.40;3.30;;;;;;;;;;4954701;28;20469;-69
2023/06/12 01:48:04;;;;;;;2.87;2.70;;;;;;;;;;4954969;28;20891;-69
2023/06/12 01:50:30;;;;;;;3.37;3.27;;;;;;;;;;4954516;28;20421;-69
2023/06/12 01:52:56;;;;;;;3.63;3.50;;;;;;;;;;4954627;28;20427;-69
2023/06/12 01:55:22;;;;;;;3.10;3.00;;;;;;;;;;4954541;28;20478;-70
2023/06/12 01:57:51;;;;;;;3.20;3.03;;;;;;;;;;4954546;28;20439;-69
2023/06/12 02:00:18;;;;;;;3.13;3.03;;;;;;;;;;4954767;28;20945;-69
2023/06/12 02:02:44;;;;;;;3.17;2.97;;;;;;;;;;4954518;28;21029;-69
2023/06/12 02:05:11;;;;;;;3.37;3.30;;;;;;;;;;4954589;28;20430;-69
2023/06/12 02:07:37;;;;;;;3.00;2.90;;;;;;;;;;4955078;28;20427;-70
2023/06/12 02:10:03;;;;;;;3.30;3.20;;;;;;;;;;4954518;28;20426;-69
2023/06/12 02:12:30;;;;;;;2.53;2.53;;;;;;;;;;4954658;28;20446;-69
2023/06/12 02:14:57;;;;;;;3.70;3.50;;;;;;;;;;4956485;28;21019;-69
2023/06/12 02:17:23;;;;;;;4.23;3.80;;;;;;;;;;4958319;28;20426;-69
2023/06/12 02:19:49;;;;;;;3.33;3.13;;;;;;;;;;4958588;28;20430;-68
2023/06/12 02:22:15;;;;;;;3.33;3.23;;;;;;;;;;4957973;28;20474;-68
2023/06/12 02:24:41;;;;;;;3.47;3.30;;;;;;;;;;4958258;28;20414;-69
2023/06/12 02:27:07;;;;;;;3.60;3.50;;;;;;;;;;4957859;28;20445;-69
2023/06/12 02:29:33;;;;;;;3.27;3.17;;;;;;;;;;4957915;28;20419;-69
2023/06/12 02:31:59;;;;;;;3.70;3.63;;;;;;;;;;4957914;28;20426;-68
2023/06/12 02:34:25;;;;;;;3.33;3.20;;;;;;;;;;4958086;28;20461;-69
2023/06/12 02:36:51;;;;;;;3.63;3.50;;;;;;;;;;4958033;28;20470;-68
2023/06/12 02:39:17;;;;;;;3.87;3.77;;;;;;;;;;4958003;28;20419;-68
2023/06/12 02:41:48;;;;;;;3.60;3.33;;;;;;;;;;4957591;28;20566;-68
2023/06/12 02:44:14;;;;;;;3.20;3.10;;;;;;;;;;4957655;28;20410;-69
2023/06/12 02:46:53;;;;;;;3.77;3.47;;;;;;;;;;4957912;28;20458;-69
2023/06/12 02:49:20;;;;;;;5.37;5.07;;;;;;;;;;4957638;28;20404;-68
2023/06/12 02:51:46;;;;;;;3.50;3.40;;;;;;;;;;4957332;28;20506;-68
2023/06/12 02:54:14;;;;;;;5.33;4.83;;;;;;;;;;4957480;28;20415;-68
2023/06/12 02:56:45;;;;;;;4.47;4.07;;;;;;;;;;4972162;28;20465;-68
2023/06/12 02:59:12;;;;;;;4.83;4.53;;;;;;;;;;4957656;28;20410;-68
2023/06/12 03:01:43;;;;;;;4.13;3.97;;;;;;;;;;4957211;28;20479;-68
2023/06/12 03:04:11;;;;;;;4.00;3.90;;;;;;;;;;4957576;28;20406;-68
2023/06/12 03:06:38;;;;;;;8.07;4.53;;;;;;;;;;4957470;28;20435;-68
2023/06/12 03:09:05;;;;;;;3.83;3.30;;;;;;;;;;4957249;28;20486;-68
2023/06/12 03:11:32;;;;;;;4.00;3.80;;;;;;;;;;4957260;28;20466;-69
2023/06/12 03:13:58;;;;;;;20.13;3.47;;;;;;;;;;4957010;28;20912;-68
2023/06/12 03:16:24;;;;;;;4.17;3.47;;;;;;;;;;4957051;28;20454;-68
2023/06/12 03:18:50;;;;;;;5.03;4.10;;;;;;;;;;4957275;28;20515;-68
2023/06/12 03:21:16;;;;;;;3.80;3.60;;;;;;;;;;4957195;28;20994;-68
2023/06/12 03:23:42;;;;;;;3.43;3.33;;;;;;;;;;4956956;28;20423;-68
2023/06/12 03:26:08;;;;;;;3.53;3.43;;;;;;;;;;4955927;28;20419;-69
2023/06/12 03:28:34;;;;;;;4.07;3.97;;;;;;;;;;4956896;28;20458;-68
2023/06/12 03:31:00;;;;;;;5.30;4.40;;;;;;;;;;4957015;28;20423;-68
2023/06/12 03:33:26;;;;;;;3.80;3.70;;;;;;;;;;4956765;28;20888;-68
2023/06/12 03:35:53;;;;;;;13.53;3.60;;;;;;;;;;4956699;29;20470;-68
2023/06/12 03:38:19;;;;;;;3.80;3.50;;;;;;;;;;4956643;28;20459;-68
2023/06/12 03:40:45;;;;;;;3.10;3.10;;;;;;;;;;4956828;28;20415;-68
2023/06/12 03:43:11;;;;;;;8.97;3.50;;;;;;;;;;4971403;28;20522;-68
2023/06/12 03:45:36;;;;;;;3.80;3.70;;;;;;;;;;4956820;28;20474;-69
2023/06/12 03:48:03;;;;;;;4.10;3.90;;;;;;;;;;4957041;28;20430;-68
2023/06/12 03:50:29;;;;;;;5.10;4.80;;;;;;;;;;4956614;28;20522;-68
2023/06/12 03:52:55;;;;;;;4.43;4.23;;;;;;;;;;4956331;28;20462;-68
2023/06/12 03:55:23;;;;;;;3.93;3.73;;;;;;;;;;4956898;28;20478;-68
2023/06/12 03:57:50;;;;;;;4.10;3.90;;;;;;;;;;4956511;28;20449;-68
2023/06/12 04:00:16;;;;;;;4.00;3.77;;;;;;;;;;4956260;28;20933;-68
2023/06/12 04:02:42;;;;;;;3.97;3.87;;;;;;;;;;4956357;28;20521;-69
2023/06/12 04:05:08;;;;;;;3.60;3.50;;;;;;;;;;4956210;28;20445;-68
2023/06/12 04:07:39;;;;;;;9.57;3.90;;;;;;;;;;4956118;28;20891;-69
2023/06/12 04:10:08;;;;;;;4.80;3.70;;;;;;;;;;4956130;28;20441;-68
2023/06/12 04:12:34;;;;;;;3.47;3.37;;;;;;;;;;4956162;28;20442;-68
2023/06/12 04:15:02;;;;;;;3.93;3.73;;;;;;;;;;4956307;28;20423;-68
2023/06/12 04:17:29;;;;;;;7.70;3.50;;;;;;;;;;4971086;28;20778;-69
2023/06/12 04:19:56;;;;;;;4.23;3.40;;;;;;;;;;4955754;28;20429;-69
2023/06/12 04:22:25;;;;;;;3.40;3.20;;;;;;;;;;4955656;28;20821;-69
2023/06/12 04:24:53;;;;;;;2.80;2.70;;;;;;;;;;4956061;28;20426;-69
2023/06/12 04:27:19;;;;;;;2.30;2.30;;;;;;;;;;4955897;28;20439;-69
2023/06/12 04:29:45;;;;;;;3.77;3.50;;;;;;;;;;4955808;28;20447;-69
2023/06/12 04:32:14;;;;;;;3.70;3.60;;;;;;;;;;4955703;28;20423;-68
2023/06/12 04:34:41;;;;;;;5.03;3.10;;;;;;;;;;4955580;28;20422;-69
2023/06/12 04:37:18;;;;;;;3.23;3.20;;;;;;;;;;4955275;28;20900;-68
2023/06/12 04:39:45;;;;;;;3.77;3.57;;;;;;;;;;4955538;28;20907;-68
2023/06/12 04:42:16;;;;;;;2.70;2.70;;;;;;;;;;4955511;28;20475;-69
2023/06/12 04:44:42;;;;;;;4.10;4.00;;;;;;;;;;4955698;28;20407;-69
2023/06/12 04:47:10;;;;;;;3.33;3.20;;;;;;;;;;4955560;28;20629;-69
2023/06/12 04:49:37;;;;;;;3.00;2.93;;;;;;;;;;4970262;28;20423;-69
2023/06/12 04:52:05;;;;;;;3.97;3.33;;;;;;;;;;4955480;28;20907;-69
2023/06/12 04:54:41;;;;;;;4.07;3.97;;;;;;;;;;4955421;28;20423;-69
2023/06/12 04:57:08;;;;;;;7.70;3.50;;;;;;;;;;4955418;28;20419;-69
2023/06/12 04:59:37;;;;;;;2.77;2.67;;;;;;;;;;4955256;28;20449;-69
2023/06/12 05:02:03;;;;;;;4.27;3.37;;;;;;;;;;4955033;28;20974;-69
2023/06/12 05:04:30;;;;;;;3.70;3.40;;;;;;;;;;4955015;28;20454;-69
2023/06/12 05:06:57;;;;;;;2.90;2.80;;;;;;;;;;4955022;28;20473;-68
2023/06/12 05:09:23;;;;;;;3.17;3.07;;;;;;;;;;4955203;28;20818;-69
2023/06/12 05:11:49;;;;;;;3.13;3.03;;;;;;;;;;4955327;28;20498;-69
2023/06/12 05:14:15;;;;;;;6.40;2.97;;;;;;;;;;4955190;28;20934;-68
2023/06/12 05:16:41;;;;;;;3.00;2.80;;;;;;;;;;4955412;28;20760;-69
2023/06/12 05:19:10;;;;;;;3.00;3.00;;;;;;;;;;4955235;28;20416;-69
2023/06/12 05:21:38;;;;;;;4.03;3.83;;;;;;;;;;4955618;28;20462;-68
2023/06/12 05:24:04;;;;;;;3.30;3.20;;;;;;;;;;4954818;28;20930;-69
2023/06/12 05:26:30;;;;;;;3.97;3.67;;;;;;;;;;4954651;28;20776;-68
2023/06/12 05:28:56;;;;;;;8.53;2.60;;;;;;;;;;4954832;28;20441;-69
2023/06/12 05:31:22;;;;;;;4.13;3.97;;;;;;;;;;4954773;28;20427;-69
2023/06/12 05:33:48;;;;;;;3.53;3.43;;;;;;;;;;4954655;28;20866;-69
2023/06/12 05:36:14;;;;;;;3.30;3.20;;;;;;;;;;4969548;28;20431;-68
2023/06/12 05:38:46;;;;;;;7.13;2.70;;;;;;;;;;4954944;28;20415;-69
2023/06/12 05:41:12;;;;;;;3.47;3.37;;;;;;;;;;4954908;28;20548;-68
2023/06/12 05:43:38;;;;;;;3.63;3.47;;;;;;;;;;4954668;28;20419;-69
2023/06/12 05:46:04;;;;;;;3.80;3.60;;;;;;;;;;4954945;28;20423;-68
2023/06/12 05:48:30;;;;;;;1.97;1.97;;;;;;;;;;4954601;28;20441;-69
2023/06/12 05:50:56;;;;;;;4.00;3.70;;;;;;;;;;4958569;28;20470;-69
2023/06/12 05:53:22;;;;;;;3.00;2.90;;;;;;;;;;4958792;28;20814;-68
2023/06/12 05:55:48;;;;;;;2.87;2.80;;;;;;;;;;4958498;28;20427;-69
2023/06/12 05:58:14;;;;;;;3.60;3.50;;;;;;;;;;4958305;28;20888;-69
2023/06/12 06:00:42;;;;;;;3.77;3.60;;;;;;;;;;4958634;28;20489;-69
2023/06/12 06:03:08;;;;;;;6.73;3.27;;;;;;;;;;4958285;28;20521;-69
2023/06/12 06:05:34;;;;;;;5.07;3.90;;;;;;;;;;4958286;28;20415;-69
2023/06/12 06:08:00;;;;;;;3.40;3.30;;;;;;;;;;4958242;28;20766;-69
2023/06/12 06:10:26;;;;;;;3.00;2.80;;;;;;;;;;4958285;28;20437;-69
2023/06/12 06:12:53;;;;;;;3.70;3.50;;;;;;;;;;4958244;28;20435;-70
2023/06/12 06:15:19;;;;;;;3.33;3.23;;;;;;;;;;4959183;28;20439;-69
2023/06/12 06:17:46;;;;;;;3.37;3.27;;;;;;;;;;4958239;28;20423;-69
2023/06/12 06:20:13;;;;;;;3.43;3.33;;;;;;;;;;4958266;28;20434;-68
2023/06/12 06:22:40;;;;;;;5.87;5.57;;;;;;;;;;4958035;28;20532;-69
2023/06/12 06:25:09;;;;;;;5.50;3.70;;;;;;;;;;4957937;28;20415;-69
2023/06/12 06:27:35;;;;;;;3.50;3.30;;;;;;;;;;4957747;28;20427;-68
2023/06/12 06:30:01;;;;;;;4.17;3.53;;;;;;;;;;4958117;28;20414;-69
2023/06/12 06:32:27;;;;;;;3.40;3.30;;;;;;;;;;4958354;28;20481;-69
2023/06/12 06:34:53;;;;;;;5.00;3.43;;;;;;;;;;4957820;28;20427;-69
2023/06/12 06:37:19;;;;;;;5.20;3.60;;;;;;;;;;4957892;28;20426;-68
2023/06/12 06:39:46;;;;;;;3.87;3.57;;;;;;;;;;4957663;28;20414;-68
2023/06/12 06:42:12;;;;;;;3.80;3.50;;;;;;;;;;4957554;28;20494;-68
2023/06/12 06:44:38;;;;;;;3.57;3.47;;;;;;;;;;4957498;28;20429;-68
2023/06/12 06:47:04;;;;;;;3.63;3.43;;;;;;;;;;4957768;28;20486;-69
2023/06/12 06:49:30;;;;;;;13.90;4.00;;;;;;;;;;4957711;28;20513;-69
2023/06/12 06:51:56;;;;;;;3.03;3.03;;;;;;;;;;4957434;28;20467;-69
2023/06/12 06:54:22;;;;;;;2.90;2.90;;;;;;;;;;4957439;28;20415;-69
2023/06/12 06:56:50;;;;;;;4.73;4.13;;;;;;;;;;4957333;28;20510;-69
2023/06/12 06:59:16;;;;;;;3.70;3.60;;;;;;;;;;4957127;28;20430;-69
2023/06/12 07:01:42;;;;;;;7.13;3.53;;;;;;;;;;4957267;28;20827;-69
2023/06/12 07:04:08;;;;;;;4.20;4.00;;;;;;;;;;4957455;28;20411;-69
2023/06/12 07:06:34;;;;;;;3.77;3.07;;;;;;;;;;4957614;28;20904;-70
2023/06/12 07:09:01;;;;;;;4.17;3.83;;;;;;;;;;4957865;28;20428;-70
2023/06/12 07:11:27;;;;;;;3.80;3.70;;;;;;;;;;4957048;28;20458;-70
2023/06/12 07:13:53;;;;;;;3.50;3.40;;;;;;;;;;4956166;28;20427;-69
2023/06/12 07:16:20;;;;;;;4.17;3.97;;;;;;;;;;4956981;28;20934;-68
2023/06/12 07:18:46;;;;;;;4.30;4.00;;;;;;;;;;4957234;28;20817;-70
2023/06/12 07:21:12;;;;;;;3.53;3.40;;;;;;;;;;4957151;28;20919;-69
2023/06/12 07:23:38;;;;;;;4.27;4.07;;;;;;;;;;4956877;28;20427;-69
2023/06/12 07:26:03;;;;;;;5.63;3.43;;;;;;;;;;4956982;28;20474;-69
2023/06/12 07:28:30;;;;;;;3.73;3.60;;;;;;;;;;4956759;28;20509;-69
2023/06/12 07:30:56;;;;;;;4.43;3.67;;;;;;;;;;4956769;28;20415;-69
2023/06/12 07:33:22;;;;;;;3.70;3.50;;;;;;;;;;4956737;28;20434;-70
2023/06/12 07:35:48;;;;;;;4.33;4.00;;;;;;;;;;4956517;28;20801;-69
2023/06/12 07:38:14;;;;;;;5.30;3.73;;;;;;;;;;4957123;28;20423;-70
2023/06/12 07:40:40;;;;;;;4.17;3.97;;;;;;;;;;4956869;28;20423;-70
2023/06/12 07:43:06;;;;;;;4.67;4.40;;;;;;;;;;4956690;28;20482;-69
2023/06/12 07:45:32;;;;;;;4.53;3.93;;;;;;;;;;4956563;28;20414;-69
2023/06/12 07:47:58;;;;;;;3.73;3.67;;;;;;;;;;4956453;28;20505;-69
2023/06/12 07:50:24;;;;;;;2.50;2.50;;;;;;;;;;4956654;28;20426;-69
2023/06/12 07:52:51;;;;;;;8.27;3.57;;;;;;;;;;4956221;28;20880;-70
2023/06/12 07:55:18;;;;;;;3.00;2.90;;;;;;;;;;4956516;28;20474;-69
2023/06/12 07:57:44;;;;;;;3.03;2.80;;;;;;;;;;4956608;28;20454;-69
2023/06/12 08:00:10;;;;;;;4.93;2.93;;;;;;;;;;4956874;28;20443;-69
2023/06/12 08:02:36;;;;;;;3.30;3.20;;;;;;;;;;4956015;28;20474;-70
2023/06/12 08:05:03;;;;;;;3.30;3.10;;;;;;;;;;4956476;28;20422;-70
2023/06/12 08:07:30;;;;;;;3.13;3.00;;;;;;;;;;4956216;28;20431;-71
2023/06/12 08:09:56;;;;;;;3.27;3.07;;;;;;;;;;4955895;28;20901;-69
2023/06/12 08:12:23;;;;;;;4.20;3.80;;;;;;;;;;4955591;28;20758;-69
2023/06/12 08:14:51;;;;;;;2.57;2.57;;;;;;;;;;4956363;28;20442;-71
2023/06/12 08:17:17;;;;;;;37.60;4.77;;;;;;;;;;4955777;28;20923;-69
2023/06/12 08:19:43;;;;;;;3.97;2.80;;;;;;;;;;4955914;28;20427;-69
2023/06/12 08:22:09;;;;;;;2.60;2.40;;;;;;;;;;4956007;28;21000;-69
2023/06/12 08:24:36;;;;;;;3.50;3.40;;;;;;;;;;4955742;28;20419;-70
2023/06/12 08:27:02;;;;;;;3.17;3.03;;;;;;;;;;4956175;28;20423;-69
2023/06/12 08:29:28;;;;;;;2.50;2.50;;;;;;;;;;4955934;28;20474;-68
2023/06/12 08:31:55;;;;;;;2.80;2.70;;;;;;;;;;4955598;28;20423;-69
2023/06/12 08:34:24;;;;;;;2.97;2.83;;;;;;;;;;4955815;28;20427;-68
2023/06/12 08:36:50;;;;;;;2.50;2.50;;;;;;;;;;4955778;28;20454;-68
2023/06/12 08:39:16;;;;;;;3.20;3.10;;;;;;;;;;4955845;28;20427;-69
2023/06/12 08:41:50;;;;;;;4.00;3.80;;;;;;;;;;4955696;28;20518;-68
2023/06/12 08:44:16;;;;;;;12.57;3.43;;;;;;;;;;4955758;28;20489;-69
2023/06/12 08:46:42;;;;;;;2.77;2.77;;;;;;;;;;4955352;28;20499;-68
2023/06/12 08:49:09;;;;;;;2.50;2.40;;;;;;;;;;4955385;28;20810;-69
2023/06/12 08:51:36;;;;;;;6.33;2.60;;;;;;;;;;4954013;28;20993;-69
2023/06/12 08:54:02;;;;;;;2.70;2.70;;;;;;;;;;4954425;28;20497;-65
2023/06/12 08:56:28;;;;;;;2.53;2.42;;;;;;;;;;4952980;28;20459;-65
2023/06/12 08:58:54;;;;;;;3.20;3.10;;;;;;;;;;4955042;28;20391;-70
2023/06/12 09:01:20;;;;;;;2.90;2.70;;;;;;;;;;4954969;28;20517;-68
2023/06/12 09:03:48;;;;;;;2.80;2.80;;;;;;;;;;4955770;28;20423;-70
2023/06/12 09:06:18;;;;;;;2.77;2.73;;;;;;;;;;4955416;28;20419;-68
2023/06/12 09:08:45;;;;;;;2.43;2.33;;;;;;;;;;4955497;28;20419;-68
2023/06/12 09:11:11;;;;;;;4.50;4.13;;;;;;;;;;4955372;28;20514;-69
2023/06/12 09:13:43;;;;;;;3.03;2.90;;;;;;;;;;4954897;28;20407;-69
2023/06/12 09:16:13;;;;;;;3.63;3.20;;;;;;;;;;4954777;28;20478;-68
2023/06/12 09:18:49;;;;;;;3.20;3.10;;;;;;;;;;4954595;28;20473;-69
2023/06/12 09:21:15;;;;;;;2.70;2.70;;;;;;;;;;4955037;28;20576;-64
2023/06/12 09:23:43;;;;;;;3.00;2.90;;;;;;;;;;4954992;28;20435;-66
2023/06/12 09:26:15;;;;;;;4.73;3.63;;;;;;;;;;4954948;28;20190;-65
2023/06/12 09:28:44;;;;;;;2.50;2.50;;;;;;;;;;4955053;28;20501;-65
2023/06/12 09:31:10;;;;;;;3.10;2.87;;;;;;;;;;4954864;28;20418;-65
2023/06/12 09:33:39;;;;;;;2.60;2.57;;;;;;;;;;4954758;28;20510;-65
2023/06/12 09:36:05;;;;;;;4.13;3.93;;;;;;;;;;4954667;28;20966;-65
2023/06/12 09:38:32;;;;;;;3.23;3.13;;;;;;;;;;4955041;28;20419;-65
2023/06/12 09:40:58;;;;;;;3.00;2.90;;;;;;;;;;4954890;28;20423;-66
2023/06/12 09:43:27;;;;;;;2.53;2.43;;;;;;;;;;4969516;28;20446;-66
2023/06/12 09:45:53;;;;;;;2.60;2.50;;;;;;;;;;4954937;28;20494;-64
2023/06/12 09:48:19;;;;;;;2.92;2.83;;;;;;;;;;4954131;28;20558;-64
2023/06/12 09:50:46;;;;;;;3.47;3.23;;;;;;;;;;4954409;28;20683;-66
2023/06/12 09:53:13;;;;;;;3.33;2.53;;;;;;;;;;4954919;28;20490;-64
2023/06/12 09:55:40;;;;;;;3.47;3.17;;;;;;;;;;4954970;28;20438;-71
2023/06/12 09:58:08;;;;;;;2.63;2.63;;;;;;;;;;4955035;28;20419;-71
2023/06/12 10:00:34;;;;;;;2.80;2.80;;;;;;;;;;4954486;28;20974;-71
2023/06/12 10:03:03;;;;;;;3.00;2.90;;;;;;;;;;4954633;28;20578;-71
2023/06/12 10:05:49;;;;;;;2.77;2.50;;;;;;;;;;4954653;28;20427;-71
2023/06/12 10:08:18;;;;;;;2.65;2.55;;;;;;;;;;4953876;28;20502;-70
2023/06/12 10:10:45;;;;;;;2.97;2.83;;;;;;;;;;4954637;28;20189;-69
2023/06/12 10:13:13;;;;;;;3.13;2.70;;;;;;;;;;4954733;28;20510;-69
2023/06/12 10:15:40;;;;;;;3.13;3.03;;;;;;;;;;4954629;28;20423;-69
2023/06/12 10:18:10;;;;;;;3.07;2.87;;;;;;;;;;4954374;28;20423;-69
2023/06/12 10:20:35;;;;;;;2.60;2.50;;;;;;;;;;4954305;28;20437;-69
2023/06/12 10:23:03;;;;;;;2.80;2.60;;;;;;;;;;4954316;28;20992;-69
2023/06/12 10:25:30;;;;;;;2.80;2.80;;;;;;;;;;4954579;28;20430;-70
2023/06/12 10:27:57;;;;;;;3.20;3.10;;;;;;;;;;4954535;28;20914;-70
2023/06/12 10:30:23;;;;;;;3.30;3.20;;;;;;;;;;4954881;28;20419;-67
2023/06/12 10:32:49;;;;;;;4.87;4.67;;;;;;;;;;4954209;28;20430;-70
2023/06/12 10:35:31;;;;;;;3.40;3.10;;;;;;;;;;4955717;28;20415;-69
2023/06/12 10:37:58;;;;;;;3.40;3.20;;;;;;;;;;4957987;28;20529;-70
2023/06/12 10:40:24;;;;;;;2.90;2.80;;;;;;;;;;4957913;28;20431;-69
2023/06/12 10:42:53;;;;;;;3.80;3.43;;;;;;;;;;4957806;28;20474;-69
2023/06/12 10:45:21;;;;;;;4.23;3.93;;;;;;;;;;4957646;28;20681;-70
2023/06/12 10:50:53;;;;;;;2.40;2.30;;;;;;;;;;4957422;29;20473;-69
2023/06/12 10:53:23;;;;;;;3.30;3.10;;;;;;;;;;4957655;28;20403;-69
2023/06/12 10:56:08;;;;;;;4.53;2.80;;;;;;;;;;4956811;28;20958;-70
2023/06/12 10:58:37;;;;;;;3.07;2.97;;;;;;;;;;4957324;28;20429;-70
2023/06/12 11:01:08;;;;;;;2.60;2.50;;;;;;;;;;4957600;28;20505;-69
2023/06/12 11:03:37;;;;;;;2.90;2.80;;;;;;;;;;4957586;28;20868;-69
2023/06/12 11:06:16;;;;;;;3.27;3.13;;;;;;;;;;4957708;28;20473;-69
2023/06/12 11:08:46;;;;;;;2.60;2.50;;;;;;;;;;4957103;28;20818;-69
2023/06/12 11:11:13;;;;;;;4.37;3.20;;;;;;;;;;4971284;28;20433;-69
2023/06/12 11:13:40;;;;;;;3.63;3.23;;;;;;;;;;4957346;28;20499;-69
2023/06/12 11:16:05;;;;;;;2.90;2.80;;;;;;;;;;4957375;28;20423;-69
2023/06/12 11:18:31;;;;;;;3.63;3.43;;;;;;;;;;4957408;28;20888;-68
2023/06/12 11:20:58;;;;;;;3.37;3.17;;;;;;;;;;4956934;28;20454;-69
2023/06/12 11:23:28;;;;;;;2.90;2.80;;;;;;;;;;4956679;28;20911;-69
2023/06/12 11:25:55;;;;;;;3.20;3.10;;;;;;;;;;4957036;28;20438;-70
2023/06/12 11:28:23;;;;;;;3.40;3.30;;;;;;;;;;4956732;28;20917;-69
2023/06/12 11:30:50;;;;;;;3.43;3.23;;;;;;;;;;4956782;28;20407;-69
2023/06/12 11:33:17;;;;;;;3.20;3.10;;;;;;;;;;4956663;28;20423;-68
2023/06/12 11:35:44;;;;;;;3.70;3.37;;;;;;;;;;4956859;28;20434;-70
2023/06/12 11:38:12;;;;;;;3.70;3.50;;;;;;;;;;4956812;28;20418;-70
2023/06/12 11:40:40;;;;;;;2.80;2.80;;;;;;;;;;4957475;28;20530;-69
2023/06/12 11:43:06;;;;;;;3.23;3.10;;;;;;;;;;4956395;28;20474;-69
2023/06/12 11:45:32;;;;;;;4.70;4.23;;;;;;;;;;4956732;28;20415;-69
2023/06/12 11:47:59;;;;;;;3.77;3.47;;;;;;;;;;4955362;28;20454;-69
2023/06/12 11:50:26;;;;;;;4.03;3.93;;;;;;;;;;4956603;28;20415;-70
2023/06/12 11:52:52;;;;;;;3.60;3.20;;;;;;;;;;4956256;28;20466;-70
2023/06/12 11:55:18;;;;;;;3.30;3.10;;;;;;;;;;4956468;28;20481;-70
2023/06/12 11:57:48;;;;;;;4.33;3.03;;;;;;;;;;4956239;28;20427;-70
2023/06/12 12:00:16;;;;;;;3.00;2.90;;;;;;;;;;4956416;28;20498;-69
2023/06/12 12:02:43;;;;;;;7.10;6.43;;;;;;;;;;4956384;28;20510;-69
2023/06/12 12:05:16;;;;;;;3.47;3.17;;;;;;;;;;4956392;28;20498;-69
2023/06/12 12:07:45;;;;;;;2.83;2.83;;;;;;;;;;4970931;28;20447;-69
2023/06/12 12:10:12;;;;;;;3.60;3.03;;;;;;;;;;4956662;28;20419;-69
2023/06/12 12:12:41;;;;;;;3.60;3.50;;;;;;;;;;4956178;28;20418;-70
2023/06/12 12:15:09;;;;;;;4.60;4.17;;;;;;;;;;4955791;28;20565;-70
2023/06/12 12:17:36;;;;;;;13.30;3.90;;;;;;;;;;4956056;28;20419;-70
2023/06/12 12:20:03;;;;;;;4.00;3.90;;;;;;;;;;4955956;28;20896;-69
2023/06/12 12:22:30;;;;;;;7.27;3.70;;;;;;;;;;4955949;28;20561;-71
2023/06/12 12:24:56;;;;;;;3.30;3.07;;;;;;;;;;4955468;28;20904;-70
2023/06/12 12:27:22;;;;;;;3.60;3.37;;;;;;;;;;4956000;28;20478;-70
2023/06/12 12:29:48;;;;;;;3.70;3.60;;;;;;;;;;4955779;28;20423;-70
2023/06/12 12:32:14;;;;;;;3.80;3.47;;;;;;;;;;4955924;28;20515;-71
2023/06/12 12:34:40;;;;;;;3.00;2.90;;;;;;;;;;4955852;28;20415;-70
2023/06/12 12:37:06;;;;;;;3.23;3.03;;;;;;;;;;4955824;28;20434;-70
2023/06/12 12:39:32;;;;;;;4.17;3.83;;;;;;;;;;4955512;28;20437;-70
2023/06/12 12:41:58;;;;;;;4.53;4.23;;;;;;;;;;4955603;28;20537;-71
2023/06/12 12:44:24;;;;;;;2.57;2.57;;;;;;;;;;4955502;28;20927;-70
2023/06/12 12:46:50;;;;;;;3.30;3.20;;;;;;;;;;4955360;28;20411;-71
2023/06/12 12:49:16;;;;;;;2.67;2.67;;;;;;;;;;4955430;28;20422;-70
2023/06/12 12:51:42;;;;;;;3.87;3.67;;;;;;;;;;4955315;28;20474;-70
2023/06/12 12:54:09;;;;;;;3.90;3.60;;;;;;;;;;4955225;28;20446;-70
2023/06/12 12:56:35;;;;;;;3.27;3.17;;;;;;;;;;4955170;28;20426;-70
2023/06/12 12:59:01;;;;;;;3.37;3.37;;;;;;;;;;4955000;28;20419;-71
2023/06/12 13:01:26;;;;;;;3.97;3.77;;;;;;;;;;4955142;28;20561;-71
2023/06/12 13:03:56;;;;;;;7.40;3.10;;;;;;;;;;4955129;28;20426;-70
2023/06/12 13:06:22;;;;;;;3.10;3.00;;;;;;;;;;4955287;28;20503;-70
2023/06/12 13:08:48;;;;;;;3.00;2.80;;;;;;;;;;4955042;28;20486;-70
2023/06/12 13:11:14;;;;;;;3.97;3.27;;;;;;;;;;4953767;28;20431;-69
2023/06/12 13:13:40;;;;;;;2.87;2.80;;;;;;;;;;4955026;28;20923;-69
2023/06/12 13:16:06;;;;;;;3.63;3.20;;;;;;;;;;4954962;28;20453;-70
2023/06/12 13:18:32;;;;;;;3.30;3.20;;;;;;;;;;4954894;28;20431;-70
2023/06/12 13:20:58;;;;;;;3.13;3.03;;;;;;;;;;4955146;28;20423;-70
2023/06/12 13:23:24;;;;;;;2.70;2.50;;;;;;;;;;4954780;28;20470;-69
2023/06/12 13:25:51;;;;;;;6.30;3.30;;;;;;;;;;4954839;28;20430;-70
2023/06/12 13:28:17;;;;;;;3.13;3.13;;;;;;;;;;4955669;28;20963;-71
2023/06/12 13:30:43;;;;;;;3.20;3.13;;;;;;;;;;4969715;28;20423;-71
2023/06/12 13:33:10;;;;;;;3.77;3.67;;;;;;;;;;4954995;28;20535;-71
2023/06/12 13:35:36;;;;;;;4.10;3.40;;;;;;;;;;4955075;28;20793;-70
2023/06/12 13:38:02;;;;;;;3.03;3.03;;;;;;;;;;4954998;28;20419;-69
2023/06/12 13:40:29;;;;;;;3.37;3.27;;;;;;;;;;4955048;28;20427;-69
2023/06/12 13:42:55;;;;;;;3.17;3.07;;;;;;;;;;4954609;28;20903;-70
2023/06/12 13:45:22;;;;;;;3.70;3.40;;;;;;;;;;4969526;28;20429;-70
2023/06/12 13:47:48;;;;;;;3.20;3.17;;;;;;;;;;4954943;28;20454;-71
2023/06/12 13:50:14;;;;;;;3.20;3.10;;;;;;;;;;4954880;28;20998;-71
2023/06/12 13:52:40;;;;;;;3.47;3.37;;;;;;;;;;4954454;28;20538;-69
2023/06/12 13:55:07;;;;;;;3.83;3.37;;;;;;;;;;4954884;28;20434;-70
2023/06/12 13:57:33;;;;;;;4.67;4.20;;;;;;;;;;4954588;28;20423;-69
2023/06/12 13:59:59;;;;;;;3.60;3.40;;;;;;;;;;4954814;28;20424;-70
2023/06/12 14:02:25;;;;;;;3.50;3.40;;;;;;;;;;4954489;28;20951;-70
2023/06/12 14:04:51;;;;;;;6.40;3.40;;;;;;;;;;4954822;28;20477;-70
2023/06/12 14:07:17;;;;;;;3.80;3.60;;;;;;;;;;4954519;28;20410;-71
2023/06/12 14:09:43;;;;;;;3.40;3.27;;;;;;;;;;4954925;28;20469;-70
2023/06/12 14:12:10;;;;;;;3.40;3.40;;;;;;;;;;4958234;28;20414;-70
2023/06/12 14:14:36;;;;;;;5.27;3.37;;;;;;;;;;4958087;28;20423;-70
2023/06/12 14:17:02;;;;;;;3.40;3.27;;;;;;;;;;4958170;28;20771;-71
2023/06/12 14:19:28;;;;;;;4.07;3.97;;;;;;;;;;4958063;28;20430;-71
2023/06/12 14:21:54;;;;;;;3.27;3.07;;;;;;;;;;4958029;28;20861;-70
2023/06/12 14:24:20;;;;;;;3.50;3.40;;;;;;;;;;4958317;28;20502;-70
2023/06/12 14:26:46;;;;;;;4.53;3.20;;;;;;;;;;4958174;28;20517;-70
2023/06/12 14:29:12;;;;;;;3.47;3.37;;;;;;;;;;4957995;28;20415;-71
2023/06/12 14:31:38;;;;;;;3.03;2.93;;;;;;;;;;4957887;28;20181;-70
2023/06/12 14:34:04;;;;;;;4.10;3.33;;;;;;;;;;4957994;28;20959;-70
2023/06/12 14:36:30;;;;;;;5.90;4.20;;;;;;;;;;4958110;28;20792;-70
2023/06/12 14:38:56;;;;;;;5.00;4.70;;;;;;;;;;4957921;28;20422;-69
2023/06/12 14:41:22;;;;;;;3.70;3.60;;;;;;;;;;4957885;28;20419;-71
2023/06/12 14:43:48;;;;;;;3.80;3.70;;;;;;;;;;4958112;28;20934;-71
2023/06/12 14:46:14;;;;;;;7.50;3.17;;;;;;;;;;4957565;28;20423;-71
2023/06/12 14:48:40;;;;;;;2.77;2.77;;;;;;;;;;4957796;28;20419;-70